sensor_id;sensor_type;location;lat;lon;timestamp;P1;durP1;ratioP1;P2;durP2;ratioP2
6475;SDS011;3271;51.910;5.840;2023-07-13T00:01:19;3.08;;;1.70;;
6475;SDS011;3271;51.910;5.840;2023-07-13T00:03:45;4.82;;;1.70;;
6475;SDS011;3271;51.910;5.840;2023-07-13T00:06:11;3.03;;;1.55;;
6475;SDS011;3271;51.910;5.840;2023-07-13T00:08:37;5.25;;;2.53;;
6475;SDS011;3271;51.910;5.840;2023-07-13T00:11:04;5.22;;;2.03;;
6475;SDS011;3271;51.910;5.840;2023-07-13T00:13:31;6.90;;;1.65;;
6475;SDS011;3271;51.910;5.840;2023-07-13T00:15:58;3.38;;;1.48;;
6475;SDS011;3271;51.910;5.840;2023-07-13T00:18:26;4.38;;;1.48;;
6475;SDS011;3271;51.910;5.840;2023-07-13T00:20:55;2.67;;;1.55;;
6475;SDS011;3271;51.910;5.840;2023-07-13T00:23:21;4.45;;;1.75;;
6475;SDS011;3271;51.910;5.840;2023-07-13T00:25:47;3.70;;;1.92;;
6475;SDS011;3271;51.910;5.840;2023-07-13T00:28:12;5.32;;;1.55;;
6475;SDS011;3271;51.910;5.840;2023-07-13T00:30:38;5.47;;;1.70;;
6475;SDS011;3271;51.910;5.840;2023-07-13T00:33:05;3.40;;;1.70;;
6475;SDS011;3271;51.910;5.840;2023-07-13T00:35:31;3.72;;;1.80;;
6475;SDS011;3271;51.910;5.840;2023-07-13T00:37:58;4.20;;;1.70;;
6475;SDS011;3271;51.910;5.840;2023-07-13T00:40:24;3.85;;;1.95;;
6475;SDS011;3271;51.910;5.840;2023-07-13T00:42:51;3.53;;;1.48;;
6475;SDS011;3271;51.910;5.840;2023-07-13T00:47:43;4.10;;;1.88;;
6475;SDS011;3271;51.910;5.840;2023-07-13T00:50:10;2.15;;;1.30;;
6475;SDS011;3271;51.910;5.840;2023-07-13T00:52:38;2.92;;;2.08;;
6475;SDS011;3271;51.910;5.840;2023-07-13T00:55:05;3.70;;;1.38;;
6475;SDS011;3271;51.910;5.840;2023-07-13T00:57:32;2.10;;;1.42;;
6475;SDS011;3271;51.910;5.840;2023-07-13T00:59:59;2.80;;;1.52;;
6475;SDS011;3271;51.910;5.840;2023-07-13T01:02:32;4.65;;;1.80;;
6475;SDS011;3271;51.910;5.840;2023-07-13T01:04:58;3.22;;;1.30;;
6475;SDS011;3271;51.910;5.840;2023-07-13T01:07:24;4.78;;;1.83;;
6475;SDS011;3271;51.910;5.840;2023-07-13T01:09:50;2.58;;;1.40;;
6475;SDS011;3271;51.910;5.840;2023-07-13T01:12:16;3.70;;;1.73;;
6475;SDS011;3271;51.910;5.840;2023-07-13T01:14:42;3.67;;;1.52;;
6475;SDS011;3271;51.910;5.840;2023-07-13T01:17:09;2.60;;;1.52;;
6475;SDS011;3271;51.910;5.840;2023-07-13T01:19:37;4.22;;;2.40;;
6475;SDS011;3271;51.910;5.840;2023-07-13T01:22:08;2.45;;;1.48;;
6475;SDS011;3271;51.910;5.840;2023-07-13T01:24:36;5.38;;;2.03;;
6475;SDS011;3271;51.910;5.840;2023-07-13T01:27:03;4.28;;;1.77;;
6475;SDS011;3271;51.910;5.840;2023-07-13T01:29:31;5.05;;;2.13;;
6475;SDS011;3271;51.910;5.840;2023-07-13T01:31:57;3.20;;;1.50;;
6475;SDS011;3271;51.910;5.840;2023-07-13T01:34:25;7.07;;;2.33;;
6475;SDS011;3271;51.910;5.840;2023-07-13T01:36:51;6.85;;;1.90;;
6475;SDS011;3271;51.910;5.840;2023-07-13T01:39:19;2.97;;;2.13;;
6475;SDS011;3271;51.910;5.840;2023-07-13T01:41:45;7.32;;;2.30;;
6475;SDS011;3271;51.910;5.840;2023-07-13T01:44:10;2.22;;;1.67;;
6475;SDS011;3271;51.910;5.840;2023-07-13T01:46:36;3.70;;;1.73;;
6475;SDS011;3271;51.910;5.840;2023-07-13T01:49:02;3.92;;;1.80;;
6475;SDS011;3271;51.910;5.840;2023-07-13T01:51:29;7.05;;;2.33;;
6475;SDS011;3271;51.910;5.840;2023-07-13T01:53:55;5.22;;;2.00;;
6475;SDS011;3271;51.910;5.840;2023-07-13T01:56:21;5.57;;;1.77;;
6475;SDS011;3271;51.910;5.840;2023-07-13T01:58:47;5.72;;;2.95;;
6475;SDS011;3271;51.910;5.840;2023-07-13T02:01:13;4.45;;;1.83;;
6475;SDS011;3271;51.910;5.840;2023-07-13T02:03:39;5.05;;;3.35;;
6475;SDS011;3271;51.910;5.840;2023-07-13T02:06:05;3.90;;;2.05;;
6475;SDS011;3271;51.910;5.840;2023-07-13T02:08:34;5.15;;;2.10;;
6475;SDS011;3271;51.910;5.840;2023-07-13T02:11:02;2.83;;;1.83;;
6475;SDS011;3271;51.910;5.840;2023-07-13T02:13:28;5.68;;;1.92;;
6475;SDS011;3271;51.910;5.840;2023-07-13T02:15:54;3.22;;;1.90;;
6475;SDS011;3271;51.910;5.840;2023-07-13T02:18:20;5.97;;;2.25;;
6475;SDS011;3271;51.910;5.840;2023-07-13T02:20:46;3.72;;;2.15;;
6475;SDS011;3271;51.910;5.840;2023-07-13T02:23:12;5.30;;;2.65;;
6475;SDS011;3271;51.910;5.840;2023-07-13T02:25:38;5.07;;;2.10;;
6475;SDS011;3271;51.910;5.840;2023-07-13T02:28:04;4.32;;;1.98;;
6475;SDS011;3271;51.910;5.840;2023-07-13T02:30:30;4.22;;;2.05;;
6475;SDS011;3271;51.910;5.840;2023-07-13T02:32:56;4.43;;;2.00;;
6475;SDS011;3271;51.910;5.840;2023-07-13T02:35:23;6.68;;;2.38;;
6475;SDS011;3271;51.910;5.840;2023-07-13T02:37:49;6.75;;;2.22;;
6475;SDS011;3271;51.910;5.840;2023-07-13T02:40:15;3.05;;;1.80;;
6475;SDS011;3271;51.910;5.840;2023-07-13T02:42:41;3.65;;;1.90;;
6475;SDS011;3271;51.910;5.840;2023-07-13T02:45:08;4.53;;;2.33;;
6475;SDS011;3271;51.910;5.840;2023-07-13T02:47:34;8.38;;;2.20;;
6475;SDS011;3271;51.910;5.840;2023-07-13T02:50:00;5.65;;;2.45;;
6475;SDS011;3271;51.910;5.840;2023-07-13T02:52:26;6.97;;;2.75;;
6475;SDS011;3271;51.910;5.840;2023-07-13T02:54:52;4.53;;;1.95;;
6475;SDS011;3271;51.910;5.840;2023-07-13T02:57:18;3.28;;;2.30;;
6475;SDS011;3271;51.910;5.840;2023-07-13T02:59:45;4.00;;;2.22;;
6475;SDS011;3271;51.910;5.840;2023-07-13T03:02:11;5.75;;;2.55;;
6475;SDS011;3271;51.910;5.840;2023-07-13T03:04:38;4.53;;;2.40;;
6475;SDS011;3271;51.910;5.840;2023-07-13T03:07:05;5.57;;;2.00;;
6475;SDS011;3271;51.910;5.840;2023-07-13T03:09:32;5.32;;;2.10;;
6475;SDS011;3271;51.910;5.840;2023-07-13T03:11:59;3.10;;;2.08;;
6475;SDS011;3271;51.910;5.840;2023-07-13T03:14:25;5.18;;;2.53;;
6475;SDS011;3271;51.910;5.840;2023-07-13T03:16:51;6.20;;;2.35;;
6475;SDS011;3271;51.910;5.840;2023-07-13T03:19:17;6.13;;;2.90;;
6475;SDS011;3271;51.910;5.840;2023-07-13T03:21:43;5.93;;;2.10;;
6475;SDS011;3271;51.910;5.840;2023-07-13T03:24:10;6.82;;;2.30;;
6475;SDS011;3271;51.910;5.840;2023-07-13T03:26:36;4.32;;;2.65;;
6475;SDS011;3271;51.910;5.840;2023-07-13T03:29:02;3.88;;;2.30;;
6475;SDS011;3271;51.910;5.840;2023-07-13T03:31:29;5.63;;;2.70;;
6475;SDS011;3271;51.910;5.840;2023-07-13T03:33:55;5.68;;;2.42;;
6475;SDS011;3271;51.910;5.840;2023-07-13T03:36:24;9.43;;;2.20;;
6475;SDS011;3271;51.910;5.840;2023-07-13T03:38:51;4.68;;;2.60;;
6475;SDS011;3271;51.910;5.840;2023-07-13T03:41:18;4.82;;;2.22;;
6475;SDS011;3271;51.910;5.840;2023-07-13T03:43:44;5.65;;;2.72;;
6475;SDS011;3271;51.910;5.840;2023-07-13T03:46:10;6.10;;;2.90;;
6475;SDS011;3271;51.910;5.840;2023-07-13T03:48:36;6.90;;;3.17;;
6475;SDS011;3271;51.910;5.840;2023-07-13T03:51:04;5.15;;;2.20;;
6475;SDS011;3271;51.910;5.840;2023-07-13T03:53:30;6.28;;;2.60;;
6475;SDS011;3271;51.910;5.840;2023-07-13T03:55:56;3.97;;;2.60;;
6475;SDS011;3271;51.910;5.840;2023-07-13T03:58:31;8.68;;;2.80;;
6475;SDS011;3271;51.910;5.840;2023-07-13T04:00:57;8.07;;;2.85;;
6475;SDS011;3271;51.910;5.840;2023-07-13T04:03:24;6.28;;;2.80;;
6475;SDS011;3271;51.910;5.840;2023-07-13T04:05:50;6.75;;;4.15;;
6475;SDS011;3271;51.910;5.840;2023-07-13T04:08:16;5.30;;;2.72;;
6475;SDS011;3271;51.910;5.840;2023-07-13T04:10:42;6.50;;;3.10;;
6475;SDS011;3271;51.910;5.840;2023-07-13T04:13:08;4.47;;;2.92;;
6475;SDS011;3271;51.910;5.840;2023-07-13T04:15:34;5.85;;;3.05;;
6475;SDS011;3271;51.910;5.840;2023-07-13T04:18:00;4.40;;;2.55;;
6475;SDS011;3271;51.910;5.840;2023-07-13T04:20:28;8.63;;;2.60;;
6475;SDS011;3271;51.910;5.840;2023-07-13T04:22:54;6.35;;;2.83;;
6475;SDS011;3271;51.910;5.840;2023-07-13T04:25:20;6.82;;;2.92;;
6475;SDS011;3271;51.910;5.840;2023-07-13T04:27:46;8.60;;;2.85;;
6475;SDS011;3271;51.910;5.840;2023-07-13T04:30:12;6.28;;;3.08;;
6475;SDS011;3271;51.910;5.840;2023-07-13T04:32:38;3.67;;;2.70;;
6475;SDS011;3271;51.910;5.840;2023-07-13T04:35:04;5.82;;;2.55;;
6475;SDS011;3271;51.910;5.840;2023-07-13T04:37:31;6.07;;;2.70;;
6475;SDS011;3271;51.910;5.840;2023-07-13T04:39:56;11.73;;;4.15;;
6475;SDS011;3271;51.910;5.840;2023-07-13T04:42:23;6.65;;;4.07;;
6475;SDS011;3271;51.910;5.840;2023-07-13T04:44:49;7.00;;;3.50;;
6475;SDS011;3271;51.910;5.840;2023-07-13T04:47:15;7.15;;;3.30;;
6475;SDS011;3271;51.910;5.840;2023-07-13T04:49:41;6.95;;;3.30;;
6475;SDS011;3271;51.910;5.840;2023-07-13T04:52:07;5.60;;;3.25;;
6475;SDS011;3271;51.910;5.840;2023-07-13T04:54:34;7.80;;;3.50;;
6475;SDS011;3271;51.910;5.840;2023-07-13T04:57:00;7.82;;;3.20;;
6475;SDS011;3271;51.910;5.840;2023-07-13T04:59:26;8.10;;;3.20;;
6475;SDS011;3271;51.910;5.840;2023-07-13T05:01:52;9.20;;;4.00;;
6475;SDS011;3271;51.910;5.840;2023-07-13T05:04:19;3.70;;;2.70;;
6475;SDS011;3271;51.910;5.840;2023-07-13T05:06:45;7.85;;;3.55;;
6475;SDS011;3271;51.910;5.840;2023-07-13T05:09:11;7.75;;;3.75;;
6475;SDS011;3271;51.910;5.840;2023-07-13T05:11:37;6.70;;;3.25;;
6475;SDS011;3271;51.910;5.840;2023-07-13T05:14:04;9.65;;;3.58;;
6475;SDS011;3271;51.910;5.840;2023-07-13T05:16:30;5.07;;;2.95;;
6475;SDS011;3271;51.910;5.840;2023-07-13T05:18:57;8.35;;;3.75;;
6475;SDS011;3271;51.910;5.840;2023-07-13T05:21:23;6.07;;;3.45;;
6475;SDS011;3271;51.910;5.840;2023-07-13T05:23:49;7.57;;;3.20;;
6475;SDS011;3271;51.910;5.840;2023-07-13T05:26:15;7.72;;;3.95;;
6475;SDS011;3271;51.910;5.840;2023-07-13T05:28:41;9.45;;;3.55;;
6475;SDS011;3271;51.910;5.840;2023-07-13T05:31:09;9.35;;;3.78;;
6475;SDS011;3271;51.910;5.840;2023-07-13T05:33:35;8.95;;;4.10;;
6475;SDS011;3271;51.910;5.840;2023-07-13T05:36:01;8.65;;;3.65;;
6475;SDS011;3271;51.910;5.840;2023-07-13T05:38:27;6.95;;;3.85;;
6475;SDS011;3271;51.910;5.840;2023-07-13T05:40:54;8.23;;;4.32;;
6475;SDS011;3271;51.910;5.840;2023-07-13T05:43:21;10.93;;;4.95;;
6475;SDS011;3271;51.910;5.840;2023-07-13T05:45:47;8.85;;;4.55;;
6475;SDS011;3271;51.910;5.840;2023-07-13T05:48:14;10.15;;;4.00;;
6475;SDS011;3271;51.910;5.840;2023-07-13T05:50:40;9.00;;;4.25;;
6475;SDS011;3271;51.910;5.840;2023-07-13T05:53:06;8.48;;;4.85;;
6475;SDS011;3271;51.910;5.840;2023-07-13T05:55:32;10.07;;;5.15;;
6475;SDS011;3271;51.910;5.840;2023-07-13T05:57:59;12.88;;;4.90;;
6475;SDS011;3271;51.910;5.840;2023-07-13T06:00:25;17.35;;;5.60;;
6475;SDS011;3271;51.910;5.840;2023-07-13T06:02:51;11.63;;;6.10;;
6475;SDS011;3271;51.910;5.840;2023-07-13T06:05:17;13.63;;;5.85;;
6475;SDS011;3271;51.910;5.840;2023-07-13T06:07:43;12.55;;;6.50;;
6475;SDS011;3271;51.910;5.840;2023-07-13T06:10:09;12.98;;;6.90;;
6475;SDS011;3271;51.910;5.840;2023-07-13T06:12:35;13.50;;;6.22;;
6475;SDS011;3271;51.910;5.840;2023-07-13T06:15:02;17.83;;;7.50;;
6475;SDS011;3271;51.910;5.840;2023-07-13T06:17:28;10.80;;;5.88;;
6475;SDS011;3271;51.910;5.840;2023-07-13T06:19:54;13.75;;;8.27;;
6475;SDS011;3271;51.910;5.840;2023-07-13T06:22:20;15.18;;;7.55;;
6475;SDS011;3271;51.910;5.840;2023-07-13T06:24:46;16.20;;;7.35;;
6475;SDS011;3271;51.910;5.840;2023-07-13T06:27:12;13.02;;;7.47;;
6475;SDS011;3271;51.910;5.840;2023-07-13T06:29:38;14.02;;;7.20;;
6475;SDS011;3271;51.910;5.840;2023-07-13T06:32:04;12.02;;;7.43;;
6475;SDS011;3271;51.910;5.840;2023-07-13T06:34:30;15.63;;;8.65;;
6475;SDS011;3271;51.910;5.840;2023-07-13T06:36:56;12.48;;;7.95;;
6475;SDS011;3271;51.910;5.840;2023-07-13T06:39:22;16.33;;;8.55;;
6475;SDS011;3271;51.910;5.840;2023-07-13T06:41:48;15.25;;;8.52;;
6475;SDS011;3271;51.910;5.840;2023-07-13T06:44:14;17.07;;;9.73;;
6475;SDS011;3271;51.910;5.840;2023-07-13T06:46:40;13.95;;;8.73;;
6475;SDS011;3271;51.910;5.840;2023-07-13T06:49:08;13.45;;;7.28;;
6475;SDS011;3271;51.910;5.840;2023-07-13T06:51:34;12.80;;;8.40;;
6475;SDS011;3271;51.910;5.840;2023-07-13T06:54:00;17.52;;;9.57;;
6475;SDS011;3271;51.910;5.840;2023-07-13T06:56:26;12.02;;;7.10;;
6475;SDS011;3271;51.910;5.840;2023-07-13T06:58:52;13.95;;;9.98;;
6475;SDS011;3271;51.910;5.840;2023-07-13T07:01:18;15.95;;;9.10;;
6475;SDS011;3271;51.910;5.840;2023-07-13T07:03:44;14.55;;;8.35;;
6475;SDS011;3271;51.910;5.840;2023-07-13T07:06:15;15.40;;;9.52;;
6475;SDS011;3271;51.910;5.840;2023-07-13T07:08:42;18.85;;;10.05;;
6475;SDS011;3271;51.910;5.840;2023-07-13T07:11:11;13.27;;;9.60;;
6475;SDS011;3271;51.910;5.840;2023-07-13T07:13:37;18.75;;;8.98;;
6475;SDS011;3271;51.910;5.840;2023-07-13T07:16:03;16.92;;;10.02;;
6475;SDS011;3271;51.910;5.840;2023-07-13T07:18:29;14.48;;;10.80;;
6475;SDS011;3271;51.910;5.840;2023-07-13T07:20:55;18.52;;;10.63;;
6475;SDS011;3271;51.910;5.840;2023-07-13T07:23:21;16.50;;;9.98;;
6475;SDS011;3271;51.910;5.840;2023-07-13T07:25:47;14.73;;;9.30;;
6475;SDS011;3271;51.910;5.840;2023-07-13T07:28:14;14.05;;;9.90;;
6475;SDS011;3271;51.910;5.840;2023-07-13T07:30:42;13.63;;;8.93;;
6475;SDS011;3271;51.910;5.840;2023-07-13T07:33:08;22.27;;;11.18;;
6475;SDS011;3271;51.910;5.840;2023-07-13T07:35:34;11.63;;;8.48;;
6475;SDS011;3271;51.910;5.840;2023-07-13T07:38:00;13.93;;;9.85;;
6475;SDS011;3271;51.910;5.840;2023-07-13T07:40:26;14.20;;;8.98;;
6475;SDS011;3271;51.910;5.840;2023-07-13T07:42:52;16.67;;;9.52;;
6475;SDS011;3271;51.910;5.840;2023-07-13T07:45:19;15.95;;;8.75;;
6475;SDS011;3271;51.910;5.840;2023-07-13T07:47:45;10.63;;;8.55;;
6475;SDS011;3271;51.910;5.840;2023-07-13T07:50:11;15.25;;;8.52;;
6475;SDS011;3271;51.910;5.840;2023-07-13T07:52:37;12.70;;;8.25;;
6475;SDS011;3271;51.910;5.840;2023-07-13T07:55:04;14.35;;;9.20;;
6475;SDS011;3271;51.910;5.840;2023-07-13T07:57:30;15.85;;;9.23;;
6475;SDS011;3271;51.910;5.840;2023-07-13T07:59:56;18.55;;;9.52;;
6475;SDS011;3271;51.910;5.840;2023-07-13T08:02:22;16.83;;;9.60;;
6475;SDS011;3271;51.910;5.840;2023-07-13T08:04:48;14.05;;;9.52;;
6475;SDS011;3271;51.910;5.840;2023-07-13T08:07:14;13.00;;;9.25;;
6475;SDS011;3271;51.910;5.840;2023-07-13T08:09:40;13.52;;;8.38;;
6475;SDS011;3271;51.910;5.840;2023-07-13T08:12:06;15.07;;;9.27;;
6475;SDS011;3271;51.910;5.840;2023-07-13T08:14:32;13.05;;;8.85;;
6475;SDS011;3271;51.910;5.840;2023-07-13T08:16:58;15.35;;;8.88;;
6475;SDS011;3271;51.910;5.840;2023-07-13T08:19:24;12.07;;;9.30;;
6475;SDS011;3271;51.910;5.840;2023-07-13T08:21:50;13.82;;;8.55;;
6475;SDS011;3271;51.910;5.840;2023-07-13T08:24:16;12.02;;;8.68;;
6475;SDS011;3271;51.910;5.840;2023-07-13T08:26:43;11.73;;;7.70;;
6475;SDS011;3271;51.910;5.840;2023-07-13T08:29:10;13.88;;;8.80;;
6475;SDS011;3271;51.910;5.840;2023-07-13T08:31:36;12.35;;;7.68;;
6475;SDS011;3271;51.910;5.840;2023-07-13T08:34:02;13.18;;;8.60;;
6475;SDS011;3271;51.910;5.840;2023-07-13T08:36:28;16.60;;;9.80;;
6475;SDS011;3271;51.910;5.840;2023-07-13T08:38:55;16.10;;;8.95;;
6475;SDS011;3271;51.910;5.840;2023-07-13T08:41:21;15.80;;;10.43;;
6475;SDS011;3271;51.910;5.840;2023-07-13T08:43:48;12.23;;;7.45;;
6475;SDS011;3271;51.910;5.840;2023-07-13T08:53:55;13.73;;;7.30;;
6475;SDS011;3271;51.910;5.840;2023-07-13T08:56:24;11.68;;;8.20;;
6475;SDS011;3271;51.910;5.840;2023-07-13T08:58:53;11.52;;;7.55;;
6475;SDS011;3271;51.910;5.840;2023-07-13T09:06:32;13.27;;;7.43;;
6475;SDS011;3271;51.910;5.840;2023-07-13T09:09:05;11.65;;;7.50;;
6475;SDS011;3271;51.910;5.840;2023-07-13T09:11:40;10.02;;;7.20;;
6475;SDS011;3271;51.910;5.840;2023-07-13T09:16:42;10.63;;;6.70;;
6475;SDS011;3271;51.910;5.840;2023-07-13T09:19:20;8.63;;;6.85;;
6475;SDS011;3271;51.910;5.840;2023-07-13T09:21:48;9.18;;;6.00;;
6475;SDS011;3271;51.910;5.840;2023-07-13T09:27:01;9.90;;;5.82;;
6475;SDS011;3271;51.910;5.840;2023-07-13T09:29:30;9.70;;;6.18;;
6475;SDS011;3271;51.910;5.840;2023-07-13T09:32:01;9.32;;;6.30;;
6475;SDS011;3271;51.910;5.840;2023-07-13T09:34:27;8.05;;;5.63;;
6475;SDS011;3271;51.910;5.840;2023-07-13T09:36:56;10.60;;;6.93;;
6475;SDS011;3271;51.910;5.840;2023-07-13T09:41:55;7.82;;;6.57;;
6475;SDS011;3271;51.910;5.840;2023-07-13T09:44:29;8.70;;;6.63;;
6475;SDS011;3271;51.910;5.840;2023-07-13T09:46:56;8.02;;;5.82;;
6475;SDS011;3271;51.910;5.840;2023-07-13T09:49:26;10.95;;;7.15;;
6475;SDS011;3271;51.910;5.840;2023-07-13T09:51:59;9.75;;;7.32;;
6475;SDS011;3271;51.910;5.840;2023-07-13T09:54:26;13.20;;;8.25;;
6475;SDS011;3271;51.910;5.840;2023-07-13T09:56:55;10.00;;;7.43;;
6475;SDS011;3271;51.910;5.840;2023-07-13T09:59:22;11.55;;;7.00;;
6475;SDS011;3271;51.910;5.840;2023-07-13T10:01:49;10.43;;;6.53;;
6475;SDS011;3271;51.910;5.840;2023-07-13T10:04:18;12.18;;;7.72;;
6475;SDS011;3271;51.910;5.840;2023-07-13T10:06:45;9.60;;;6.95;;
6475;SDS011;3271;51.910;5.840;2023-07-13T10:09:16;7.10;;;5.40;;
6475;SDS011;3271;51.910;5.840;2023-07-13T10:11:42;8.05;;;6.20;;
6475;SDS011;3271;51.910;5.840;2023-07-13T10:16:38;7.95;;;5.72;;
6475;SDS011;3271;51.910;5.840;2023-07-13T10:19:14;9.00;;;5.88;;
6475;SDS011;3271;51.910;5.840;2023-07-13T10:21:50;7.20;;;5.82;;
6475;SDS011;3271;51.910;5.840;2023-07-13T10:24:21;7.85;;;5.60;;
6475;SDS011;3271;51.910;5.840;2023-07-13T10:27:30;8.00;;;5.65;;
6475;SDS011;3271;51.910;5.840;2023-07-13T10:29:37;7.88;;;6.35;;
6475;SDS011;3271;51.910;5.840;2023-07-13T10:32:10;13.95;;;7.32;;
6475;SDS011;3271;51.910;5.840;2023-07-13T10:34:37;7.72;;;6.57;;
6475;SDS011;3271;51.910;5.840;2023-07-13T10:37:03;11.80;;;5.55;;
6475;SDS011;3271;51.910;5.840;2023-07-13T10:39:30;7.53;;;5.55;;
6475;SDS011;3271;51.910;5.840;2023-07-13T10:42:03;8.98;;;5.68;;
6475;SDS011;3271;51.910;5.840;2023-07-13T10:44:31;8.23;;;5.50;;
6475;SDS011;3271;51.910;5.840;2023-07-13T10:47:01;7.22;;;5.28;;
6475;SDS011;3271;51.910;5.840;2023-07-13T10:49:28;10.00;;;5.47;;
6475;SDS011;3271;51.910;5.840;2023-07-13T10:51:55;7.07;;;4.97;;
6475;SDS011;3271;51.910;5.840;2023-07-13T10:54:32;8.98;;;4.78;;
6475;SDS011;3271;51.910;5.840;2023-07-13T10:59:34;6.18;;;4.53;;
6475;SDS011;3271;51.910;5.840;2023-07-13T11:04:39;7.32;;;4.35;;
6475;SDS011;3271;51.910;5.840;2023-07-13T11:07:10;7.55;;;4.60;;
6475;SDS011;3271;51.910;5.840;2023-07-13T11:09:38;6.85;;;4.03;;
6475;SDS011;3271;51.910;5.840;2023-07-13T11:27:51;5.78;;;3.40;;
6475;SDS011;3271;51.910;5.840;2023-07-13T11:32:50;4.82;;;3.45;;
6475;SDS011;3271;51.910;5.840;2023-07-13T11:35:18;6.65;;;4.03;;
6475;SDS011;3271;51.910;5.840;2023-07-13T11:37:48;5.65;;;3.53;;
6475;SDS011;3271;51.910;5.840;2023-07-13T11:40:14;5.97;;;3.70;;
6475;SDS011;3271;51.910;5.840;2023-07-13T11:42:40;6.32;;;3.38;;
6475;SDS011;3271;51.910;5.840;2023-07-13T11:45:18;6.43;;;3.30;;
6475;SDS011;3271;51.910;5.840;2023-07-13T11:47:45;8.50;;;3.40;;
6475;SDS011;3271;51.910;5.840;2023-07-13T11:50:20;8.63;;;3.35;;
6475;SDS011;3271;51.910;5.840;2023-07-13T11:52:47;7.70;;;4.00;;
6475;SDS011;3271;51.910;5.840;2023-07-13T11:55:16;4.03;;;3.10;;
6475;SDS011;3271;51.910;5.840;2023-07-13T12:00:20;6.80;;;3.78;;
6475;SDS011;3271;51.910;5.840;2023-07-13T12:02:50;5.22;;;3.22;;
6475;SDS011;3271;51.910;5.840;2023-07-13T12:05:17;4.65;;;3.38;;
6475;SDS011;3271;51.910;5.840;2023-07-13T12:07:45;5.00;;;2.70;;
6475;SDS011;3271;51.910;5.840;2023-07-13T12:12:47;3.88;;;2.30;;
6475;SDS011;3271;51.910;5.840;2023-07-13T12:15:13;3.83;;;2.35;;
6475;SDS011;3271;51.910;5.840;2023-07-13T12:17:40;4.85;;;2.88;;
6475;SDS011;3271;51.910;5.840;2023-07-13T12:20:29;5.32;;;2.70;;
6475;SDS011;3271;51.910;5.840;2023-07-13T12:22:53;4.85;;;2.30;;
6475;SDS011;3271;51.910;5.840;2023-07-13T12:25:19;5.05;;;3.17;;
6475;SDS011;3271;51.910;5.840;2023-07-13T12:27:46;5.10;;;3.63;;
6475;SDS011;3271;51.910;5.840;2023-07-13T12:30:30;3.33;;;3.03;;
6475;SDS011;3271;51.910;5.840;2023-07-13T12:35:29;4.85;;;3.67;;
6475;SDS011;3271;51.910;5.840;2023-07-13T12:38:00;5.20;;;3.30;;
6475;SDS011;3271;51.910;5.840;2023-07-13T12:40:28;4.28;;;3.33;;
6475;SDS011;3271;51.910;5.840;2023-07-13T12:42:57;6.38;;;2.85;;
6475;SDS011;3271;51.910;5.840;2023-07-13T12:45:24;3.60;;;2.90;;
6475;SDS011;3271;51.910;5.840;2023-07-13T12:47:55;3.67;;;2.13;;
6475;SDS011;3271;51.910;5.840;2023-07-13T12:50:27;4.43;;;2.28;;
6475;SDS011;3271;51.910;5.840;2023-07-13T12:52:54;6.63;;;2.67;;
6475;SDS011;3271;51.910;5.840;2023-07-13T12:55:23;3.95;;;1.90;;
6475;SDS011;3271;51.910;5.840;2023-07-13T12:57:53;3.30;;;2.90;;
6475;SDS011;3271;51.910;5.840;2023-07-13T13:02:45;3.55;;;2.40;;
6475;SDS011;3271;51.910;5.840;2023-07-13T13:05:12;5.25;;;2.83;;
6475;SDS011;3271;51.910;5.840;2023-07-13T13:07:39;2.72;;;2.13;;
6475;SDS011;3271;51.910;5.840;2023-07-13T13:10:12;2.88;;;2.22;;
6475;SDS011;3271;51.910;5.840;2023-07-13T13:12:39;4.47;;;2.40;;
6475;SDS011;3271;51.910;5.840;2023-07-13T13:15:07;2.42;;;2.03;;
6475;SDS011;3271;51.910;5.840;2023-07-13T13:17:33;2.72;;;2.13;;
6475;SDS011;3271;51.910;5.840;2023-07-13T13:19:59;4.13;;;2.10;;
6475;SDS011;3271;51.910;5.840;2023-07-13T13:22:26;2.70;;;2.20;;
6475;SDS011;3271;51.910;5.840;2023-07-13T13:24:52;3.67;;;2.20;;
6475;SDS011;3271;51.910;5.840;2023-07-13T13:27:18;6.85;;;2.15;;
6475;SDS011;3271;51.910;5.840;2023-07-13T13:29:45;3.42;;;1.90;;
6475;SDS011;3271;51.910;5.840;2023-07-13T13:32:12;3.50;;;2.15;;
6475;SDS011;3271;51.910;5.840;2023-07-13T13:34:39;2.95;;;2.20;;
6475;SDS011;3271;51.910;5.840;2023-07-13T13:37:11;3.50;;;2.40;;
6475;SDS011;3271;51.910;5.840;2023-07-13T13:39:43;2.42;;;2.00;;
6475;SDS011;3271;51.910;5.840;2023-07-13T13:42:09;3.45;;;2.58;;
6475;SDS011;3271;51.910;5.840;2023-07-13T13:44:35;4.00;;;2.50;;
6475;SDS011;3271;51.910;5.840;2023-07-13T13:47:01;2.60;;;2.17;;
6475;SDS011;3271;51.910;5.840;2023-07-13T13:49:28;6.07;;;2.53;;
6475;SDS011;3271;51.910;5.840;2023-07-13T13:51:55;3.20;;;2.40;;
6475;SDS011;3271;51.910;5.840;2023-07-13T13:54:22;2.88;;;2.30;;
6475;SDS011;3271;51.910;5.840;2023-07-13T13:56:49;2.60;;;2.30;;
6475;SDS011;3271;51.910;5.840;2023-07-13T13:59:16;4.03;;;2.20;;
6475;SDS011;3271;51.910;5.840;2023-07-13T14:01:42;2.50;;;2.22;;
6475;SDS011;3271;51.910;5.840;2023-07-13T14:04:20;2.50;;;1.95;;
6475;SDS011;3271;51.910;5.840;2023-07-13T14:06:47;3.95;;;2.20;;
6475;SDS011;3271;51.910;5.840;2023-07-13T14:09:14;3.15;;;2.30;;
6475;SDS011;3271;51.910;5.840;2023-07-13T14:11:40;4.57;;;2.50;;
6475;SDS011;3271;51.910;5.840;2023-07-13T14:14:12;5.30;;;2.22;;
6475;SDS011;3271;51.910;5.840;2023-07-13T14:16:40;2.92;;;2.20;;
6475;SDS011;3271;51.910;5.840;2023-07-13T14:19:08;4.22;;;2.20;;
6475;SDS011;3271;51.910;5.840;2023-07-13T14:21:35;6.65;;;2.65;;
6475;SDS011;3271;51.910;5.840;2023-07-13T14:24:01;7.50;;;2.97;;
6475;SDS011;3271;51.910;5.840;2023-07-13T14:26:28;5.07;;;2.47;;
6475;SDS011;3271;51.910;5.840;2023-07-13T14:28:56;4.68;;;2.47;;
6475;SDS011;3271;51.910;5.840;2023-07-13T14:31:24;4.32;;;2.20;;
6475;SDS011;3271;51.910;5.840;2023-07-13T14:33:51;2.63;;;1.90;;
6475;SDS011;3271;51.910;5.840;2023-07-13T14:36:21;4.43;;;2.38;;
6475;SDS011;3271;51.910;5.840;2023-07-13T14:38:49;3.53;;;2.05;;
6475;SDS011;3271;51.910;5.840;2023-07-13T14:41:15;5.38;;;2.80;;
6475;SDS011;3271;51.910;5.840;2023-07-13T14:43:41;6.30;;;2.28;;
6475;SDS011;3271;51.910;5.840;2023-07-13T14:46:08;4.72;;;2.10;;
6475;SDS011;3271;51.910;5.840;2023-07-13T14:48:42;2.92;;;2.05;;
6475;SDS011;3271;51.910;5.840;2023-07-13T14:51:09;3.05;;;2.28;;
6475;SDS011;3271;51.910;5.840;2023-07-13T14:53:35;2.13;;;1.90;;
6475;SDS011;3271;51.910;5.840;2023-07-13T14:56:08;4.30;;;2.50;;
6475;SDS011;3271;51.910;5.840;2023-07-13T14:58:35;4.90;;;2.22;;
6475;SDS011;3271;51.910;5.840;2023-07-13T15:01:01;5.22;;;2.33;;
6475;SDS011;3271;51.910;5.840;2023-07-13T15:03:27;2.25;;;1.95;;
6475;SDS011;3271;51.910;5.840;2023-07-13T15:05:53;4.18;;;2.30;;
6475;SDS011;3271;51.910;5.840;2023-07-13T15:08:19;3.97;;;2.15;;
6475;SDS011;3271;51.910;5.840;2023-07-13T15:10:45;2.97;;;2.00;;
6475;SDS011;3271;51.910;5.840;2023-07-13T15:13:18;2.97;;;1.80;;
6475;SDS011;3271;51.910;5.840;2023-07-13T15:15:45;3.85;;;2.13;;
6475;SDS011;3271;51.910;5.840;2023-07-13T15:18:12;4.00;;;2.22;;
6475;SDS011;3271;51.910;5.840;2023-07-13T15:20:38;3.55;;;1.90;;
6475;SDS011;3271;51.910;5.840;2023-07-13T15:23:04;4.63;;;1.90;;
6475;SDS011;3271;51.910;5.840;2023-07-13T15:25:31;4.72;;;1.92;;
6475;SDS011;3271;51.910;5.840;2023-07-13T15:27:58;3.53;;;1.80;;
6475;SDS011;3271;51.910;5.840;2023-07-13T15:30:29;2.40;;;2.00;;
6475;SDS011;3271;51.910;5.840;2023-07-13T15:32:55;3.55;;;2.00;;
6475;SDS011;3271;51.910;5.840;2023-07-13T15:35:25;3.85;;;2.00;;
6475;SDS011;3271;51.910;5.840;2023-07-13T15:37:51;2.90;;;1.90;;
6475;SDS011;3271;51.910;5.840;2023-07-13T15:40:18;5.57;;;2.28;;
6475;SDS011;3271;51.910;5.840;2023-07-13T15:42:46;2.25;;;2.00;;
6475;SDS011;3271;51.910;5.840;2023-07-13T15:47:42;4.72;;;2.10;;
6475;SDS011;3271;51.910;5.840;2023-07-13T15:50:16;1.88;;;1.60;;
6475;SDS011;3271;51.910;5.840;2023-07-13T15:52:43;1.95;;;1.75;;
6475;SDS011;3271;51.910;5.840;2023-07-13T15:55:11;1.98;;;1.50;;
6475;SDS011;3271;51.910;5.840;2023-07-13T15:57:38;3.42;;;1.80;;
6475;SDS011;3271;51.910;5.840;2023-07-13T16:00:12;4.32;;;2.10;;
6475;SDS011;3271;51.910;5.840;2023-07-13T16:02:38;2.75;;;2.00;;
6475;SDS011;3271;51.910;5.840;2023-07-13T16:05:04;3.08;;;2.10;;
6475;SDS011;3271;51.910;5.840;2023-07-13T16:07:30;3.15;;;1.80;;
6475;SDS011;3271;51.910;5.840;2023-07-13T16:09:56;4.45;;;2.10;;
6475;SDS011;3271;51.910;5.840;2023-07-13T16:12:22;3.35;;;1.70;;
6475;SDS011;3271;51.910;5.840;2023-07-13T16:14:48;3.33;;;2.15;;